Terminal Aerodrome Forecast
Issued by NWS Wilmington, OH

Current Version | Previous Version | Graphics & Text | Print | Product List | Glossary On
Versions: 1 2 3 4 5 6 7 8 9 10 11 12 13 14 15 16 17 18 19 20 21 22 23 24 25 26 27 28 29 30 31 32
000
FTUS41 KILN 270101 AAA
TAFDAY
TAF AMD
KDAY 270101Z 2701/2724 03014KT 4SM HZ VCSH FEW025 OVC130
     FM270400 05006KT 5SM BR OVC025
     FM270800 06006KT 5SM BR OVC015
     FM271500 06010KT P6SM BKN025
     FM272000 06010KT P6SM VCSH BKN035=

USA.gov is the U.S. government's official web portal to all federal, state and local government web resources and services.